Time;durP1;ratioP1;P1;durP2;ratioP2;P2;SDS_P1;SDS_P2;PMS_P1;PMS_P2;Temp;Humidity;BMP_temperature;BMP_pressure;BME280_temperature;BME280_humidity;BME280_pressure;Samples;Min_cycle;Max_cycle;Signal;HPM_P1;HPM_P2
2023/12/31 00:02:14;;;;;;;51.35;27.88;;;;;;;;;;6286799;22;20023;-94
2023/12/31 00:04:41;;;;;;;64.13;31.55;;;;;;;;;;6251055;22;20138;-95
2023/12/31 00:07:07;;;;;;;55.55;28.15;;;;;;;;;;6250951;22;20015;-95
2023/12/31 00:09:36;;;;;;;62.90;30.95;;;;;;;;;;6251155;22;20003;-94
2023/12/31 00:12:02;;;;;;;53.28;28.17;;;;;;;;;;6250718;22;20007;-93
2023/12/31 00:14:34;;;;;;;60.88;30.08;;;;;;;;;;6251089;22;20063;-94
2023/12/31 00:17:00;;;;;;;61.28;30.00;;;;;;;;;;6250981;22;20110;-95
2023/12/31 00:19:27;;;;;;;64.75;32.40;;;;;;;;;;6250877;22;19996;-93
2023/12/31 00:21:59;;;;;;;52.30;26.83;;;;;;;;;;6250880;22;20043;-94
2023/12/31 00:24:25;;;;;;;55.50;26.00;;;;;;;;;;6251042;22;20087;-94
2023/12/31 00:26:51;;;;;;;54.95;29.38;;;;;;;;;;6250790;22;20011;-94
2023/12/31 00:29:18;;;;;;;51.20;27.20;;;;;;;;;;6252280;22;19999;-94
2023/12/31 00:31:44;;;;;;;53.28;27.10;;;;;;;;;;6251413;22;20015;-94
2023/12/31 00:34:17;;;;;;;49.70;25.75;;;;;;;;;;6250592;22;20000;-94
2023/12/31 00:36:43;;;;;;;53.53;27.48;;;;;;;;;;6251717;22;20311;-94
2023/12/31 00:39:10;;;;;;;39.03;21.48;;;;;;;;;;6254050;22;20004;-95
2023/12/31 00:41:36;;;;;;;32.80;18.13;;;;;;;;;;6247376;23;20028;-94
2023/12/31 00:44:02;;;;;;;39.97;21.65;;;;;;;;;;6222845;23;20381;-94
2023/12/31 00:46:28;;;;;;;49.30;26.63;;;;;;;;;;6222736;23;20477;-95
2023/12/31 00:48:54;;;;;;;37.20;20.73;;;;;;;;;;6222487;23;20008;-92
2023/12/31 00:51:21;;;;;;;37.28;20.13;;;;;;;;;;6222493;23;20433;-94
2023/12/31 00:53:47;;;;;;;54.45;25.90;;;;;;;;;;6222591;23;20004;-94
2023/12/31 00:56:14;;;;;;;47.53;24.27;;;;;;;;;;6222816;23;20015;-93
2023/12/31 00:58:40;;;;;;;34.65;18.77;;;;;;;;;;6222448;23;20031;-95
2023/12/31 01:01:06;;;;;;;51.22;25.35;;;;;;;;;;6248347;23;20011;-94
2023/12/31 01:03:35;;;;;;;50.80;25.92;;;;;;;;;;6222827;23;20054;-94
2023/12/31 01:06:05;;;;;;;66.50;30.80;;;;;;;;;;6222253;23;20031;-94
2023/12/31 01:08:37;;;;;;;56.90;24.85;;;;;;;;;;6222378;23;20004;-94
2023/12/31 01:11:03;;;;;;;103.72;38.55;;;;;;;;;;6222134;23;20004;-93
2023/12/31 01:13:30;;;;;;;84.88;34.50;;;;;;;;;;6222007;23;20000;-94
2023/12/31 01:15:56;;;;;;;77.57;33.25;;;;;;;;;;6221905;23;20493;-92
2023/12/31 01:18:28;;;;;;;64.68;30.17;;;;;;;;;;6222564;23;20001;-94
2023/12/31 01:20:54;;;;;;;85.80;35.20;;;;;;;;;;6221643;23;20004;-93
2023/12/31 01:23:20;;;;;;;86.78;35.10;;;;;;;;;;6222109;23;20449;-94
2023/12/31 01:25:47;;;;;;;84.15;34.42;;;;;;;;;;6222430;23;20000;-94
2023/12/31 01:28:13;;;;;;;67.97;28.77;;;;;;;;;;6222328;23;20086;-94
2023/12/31 01:30:39;;;;;;;74.18;31.42;;;;;;;;;;6223147;23;20028;-94
2023/12/31 01:33:05;;;;;;;59.45;27.23;;;;;;;;;;6222846;23;20065;-94
2023/12/31 01:35:32;;;;;;;53.38;24.58;;;;;;;;;;6224381;23;20089;-95
2023/12/31 01:38:01;;;;;;;52.55;25.50;;;;;;;;;;6258071;22;20008;-93
2023/12/31 01:40:33;;;;;;;86.85;34.28;;;;;;;;;;6295215;22;20004;-92
2023/12/31 01:43:03;;;;;;;80.05;34.35;;;;;;;;;;6272803;22;20396;-95
2023/12/31 01:45:29;;;;;;;68.53;27.95;;;;;;;;;;6272437;22;20483;-94
2023/12/31 01:47:59;;;;;;;98.50;37.67;;;;;;;;;;6272410;22;20004;-93
2023/12/31 01:50:25;;;;;;;70.53;30.38;;;;;;;;;;6271850;22;20016;-94
2023/12/31 01:52:55;;;;;;;83.25;33.17;;;;;;;;;;6272644;22;20008;-95
2023/12/31 01:55:22;;;;;;;87.43;32.45;;;;;;;;;;6272881;22;20461;-94
2023/12/31 01:57:51;;;;;;;111.75;41.53;;;;;;;;;;6272633;22;20009;-95
2023/12/31 02:00:19;;;;;;;114.80;42.53;;;;;;;;;;6272639;22;20031;-94
2023/12/31 02:02:49;;;;;;;164.38;58.70;;;;;;;;;;6272515;22;20082;-94
2023/12/31 02:05:16;;;;;;;131.18;51.22;;;;;;;;;;6269303;22;20000;-94
2023/12/31 02:07:42;;;;;;;117.78;46.13;;;;;;;;;;6272721;22;20004;-94
2023/12/31 02:10:09;;;;;;;95.18;37.67;;;;;;;;;;6272921;22;20008;-95
2023/12/31 02:12:35;;;;;;;69.45;30.58;;;;;;;;;;6272988;22;20031;-95
2023/12/31 02:15:02;;;;;;;56.00;25.13;;;;;;;;;;6272913;22;20020;-96
2023/12/31 02:17:28;;;;;;;49.53;23.02;;;;;;;;;;6272519;22;20011;-94
2023/12/31 02:19:54;;;;;;;41.80;21.55;;;;;;;;;;6272373;22;20007;-94
2023/12/31 02:22:20;;;;;;;45.47;22.23;;;;;;;;;;6272280;22;20039;-94
2023/12/31 02:24:48;;;;;;;45.25;22.63;;;;;;;;;;6272647;22;20000;-94
2023/12/31 02:27:15;;;;;;;42.38;21.88;;;;;;;;;;6272696;22;20011;-94
2023/12/31 02:29:41;;;;;;;43.90;22.83;;;;;;;;;;6271979;22;20422;-95
2023/12/31 02:32:10;;;;;;;63.90;29.67;;;;;;;;;;6272400;22;20093;-94
2023/12/31 02:34:36;;;;;;;46.40;22.85;;;;;;;;;;6272313;22;20089;-95
2023/12/31 02:37:02;;;;;;;52.50;26.58;;;;;;;;;;6271989;22;20008;-94
2023/12/31 02:39:29;;;;;;;47.25;23.55;;;;;;;;;;6272336;22;20065;-94
2023/12/31 02:41:55;;;;;;;41.70;22.33;;;;;;;;;;6272070;22;20065;-95
2023/12/31 02:44:21;;;;;;;49.72;24.90;;;;;;;;;;6272130;22;20031;-94
2023/12/31 02:46:47;;;;;;;43.30;22.73;;;;;;;;;;6272391;22;20079;-95
2023/12/31 02:49:14;;;;;;;64.05;30.70;;;;;;;;;;6272270;22;20330;-94
2023/12/31 02:51:46;;;;;;;60.00;28.95;;;;;;;;;;6272122;22;20015;-94
2023/12/31 02:54:12;;;;;;;51.55;27.20;;;;;;;;;;6271835;22;20062;-95
2023/12/31 02:56:44;;;;;;;60.10;29.30;;;;;;;;;;6271912;22;20008;-94
2023/12/31 02:59:11;;;;;;;52.75;26.38;;;;;;;;;;6272049;22;20031;-94
2023/12/31 03:01:40;;;;;;;51.83;25.77;;;;;;;;;;6272178;22;20627;-93
2023/12/31 03:04:09;;;;;;;55.10;26.33;;;;;;;;;;6271790;22;20000;-94
2023/12/31 03:06:40;;;;;;;55.72;27.27;;;;;;;;;;6271858;22;20016;-94
2023/12/31 03:09:06;;;;;;;55.55;26.77;;;;;;;;;;6272794;22;20000;-95
2023/12/31 03:11:36;;;;;;;57.15;25.33;;;;;;;;;;6272198;22;20043;-94
2023/12/31 03:14:02;;;;;;;45.85;23.45;;;;;;;;;;6271158;22;20008;-95
2023/12/31 03:16:29;;;;;;;48.25;23.92;;;;;;;;;;6280976;22;20004;-94
2023/12/31 03:18:55;;;;;;;40.67;21.48;;;;;;;;;;6298815;22;19996;-93
2023/12/31 03:21:22;;;;;;;45.72;24.25;;;;;;;;;;6288084;22;20284;-95
2023/12/31 03:23:48;;;;;;;47.95;22.77;;;;;;;;;;6273347;22;20008;-94
2023/12/31 03:26:14;;;;;;;38.63;19.90;;;;;;;;;;6271345;22;20000;-95
2023/12/31 03:28:41;;;;;;;46.75;23.40;;;;;;;;;;6273470;22;20031;-93
2023/12/31 03:31:09;;;;;;;49.13;23.50;;;;;;;;;;6272267;22;20004;-95
2023/12/31 03:33:35;;;;;;;41.97;21.42;;;;;;;;;;6271809;22;20008;-94
2023/12/31 03:36:02;;;;;;;51.97;23.17;;;;;;;;;;6271785;22;20054;-95
2023/12/31 03:38:31;;;;;;;43.03;22.20;;;;;;;;;;6271872;22;20008;-95
2023/12/31 03:40:57;;;;;;;36.80;19.05;;;;;;;;;;6271607;22;20031;-94
2023/12/31 03:43:23;;;;;;;37.17;20.25;;;;;;;;;;6272880;22;20149;-94
2023/12/31 03:45:54;;;;;;;47.33;23.52;;;;;;;;;;6271416;22;20079;-95
2023/12/31 03:48:20;;;;;;;42.63;21.52;;;;;;;;;;6272104;22;20035;-95
2023/12/31 03:50:47;;;;;;;28.20;16.15;;;;;;;;;;6271542;22;20011;-95
2023/12/31 03:53:16;;;;;;;32.42;18.20;;;;;;;;;;6271541;22;20080;-95
2023/12/31 03:55:42;;;;;;;30.20;17.77;;;;;;;;;;6271245;22;20015;-94
2023/12/31 03:58:09;;;;;;;54.38;23.55;;;;;;;;;;6271492;22;20127;-94
2023/12/31 04:00:35;;;;;;;52.10;23.60;;;;;;;;;;6271494;22;20086;-95
2023/12/31 04:03:04;;;;;;;47.08;20.42;;;;;;;;;;6271467;22;20020;-94
2023/12/31 04:05:31;;;;;;;53.33;24.33;;;;;;;;;;6271480;22;20008;-95
2023/12/31 04:07:57;;;;;;;52.97;24.45;;;;;;;;;;6271585;22;20004;-94
2023/12/31 04:10:26;;;;;;;61.35;26.48;;;;;;;;;;6271374;22;20004;-94
2023/12/31 04:13:02;;;;;;;57.25;25.92;;;;;;;;;;6270979;22;20401;-95
2023/12/31 04:15:31;;;;;;;49.85;23.75;;;;;;;;;;6271240;22;20007;-95
2023/12/31 04:17:57;;;;;;;66.55;28.02;;;;;;;;;;6271477;22;20017;-94
2023/12/31 04:20:23;;;;;;;66.82;29.23;;;;;;;;;;6271283;22;20051;-95
2023/12/31 04:22:49;;;;;;;57.20;26.85;;;;;;;;;;6272106;22;20038;-95
2023/12/31 04:25:16;;;;;;;42.55;23.17;;;;;;;;;;6271348;22;20003;-95
2023/12/31 04:27:44;;;;;;;32.92;18.65;;;;;;;;;;6272056;22;20012;-95
2023/12/31 04:30:12;;;;;;;57.63;26.23;;;;;;;;;;6270969;22;20007;-96
2023/12/31 04:32:41;;;;;;;69.45;28.88;;;;;;;;;;6270600;22;20036;-95
2023/12/31 04:35:08;;;;;;;68.60;28.65;;;;;;;;;;6272963;22;20483;-95
2023/12/31 04:37:34;;;;;;;90.60;33.90;;;;;;;;;;6270823;22;20017;-96
2023/12/31 04:40:01;;;;;;;57.55;28.35;;;;;;;;;;6271553;22;20009;-96
2023/12/31 04:42:27;;;;;;;65.63;31.77;;;;;;;;;;6272345;22;20023;-95
2023/12/31 04:44:54;;;;;;;74.72;34.30;;;;;;;;;;6271417;22;20004;-96
2023/12/31 04:47:20;;;;;;;106.72;38.03;;;;;;;;;;6272241;22;20008;-96
2023/12/31 04:49:46;;;;;;;86.13;34.40;;;;;;;;;;6272147;22;20007;-95
2023/12/31 04:52:12;;;;;;;71.95;31.90;;;;;;;;;;6272189;22;20026;-95
2023/12/31 04:54:42;;;;;;;86.45;35.42;;;;;;;;;;6284100;22;20002;-95
2023/12/31 04:57:08;;;;;;;56.25;27.00;;;;;;;;;;6298991;22;20007;-95
2023/12/31 04:59:37;;;;;;;66.95;32.85;;;;;;;;;;6281514;22;20004;-96
2023/12/31 05:02:06;;;;;;;80.45;35.65;;;;;;;;;;6271789;22;20012;-96
2023/12/31 05:04:35;;;;;;;70.80;33.97;;;;;;;;;;6271615;22;20004;-95
2023/12/31 05:07:08;;;;;;;73.30;34.00;;;;;;;;;;6271387;22;20066;-96
2023/12/31 05:09:55;;;;;;;44.57;27.13;;;;;;;;;;6270456;22;20004;-95
2023/12/31 05:12:21;;;;;;;74.35;35.35;;;;;;;;;;6246826;23;20004;-96
2023/12/31 05:14:50;;;;;;;75.72;34.42;;;;;;;;;;6271234;22;20494;-95
2023/12/31 05:17:19;;;;;;;80.90;37.42;;;;;;;;;;6270986;22;20008;-96
2023/12/31 05:19:48;;;;;;;87.15;38.47;;;;;;;;;;6270971;22;20326;-93
2023/12/31 05:22:24;;;;;;;64.15;32.13;;;;;;;;;;6270595;22;20016;-96
2023/12/31 05:30:57;;;;;;;75.53;33.47;;;;;;;;;;6248815;23;20070;-94
2023/12/31 05:33:23;;;;;;;78.47;35.45;;;;;;;;;;6273150;22;20239;-95
2023/12/31 05:35:50;;;;;;;86.15;37.42;;;;;;;;;;6273175;22;20000;-96
2023/12/31 05:38:16;;;;;;;85.60;35.80;;;;;;;;;;6272272;22;20036;-95
2023/12/31 05:40:43;;;;;;;77.85;35.17;;;;;;;;;;6273278;22;20004;-95
2023/12/31 05:43:11;;;;;;;73.32;34.22;;;;;;;;;;6273658;22;20338;-96
2023/12/31 05:45:38;;;;;;;83.82;35.58;;;;;;;;;;6272901;22;20004;-95
2023/12/31 05:48:04;;;;;;;50.17;27.05;;;;;;;;;;6272853;22;20008;-96
2023/12/31 05:50:30;;;;;;;87.97;36.17;;;;;;;;;;6272937;22;20041;-95
2023/12/31 05:52:56;;;;;;;79.18;35.58;;;;;;;;;;6272931;22;20004;-95
2023/12/31 05:55:23;;;;;;;71.72;34.80;;;;;;;;;;6273972;22;20004;-94
2023/12/31 05:57:50;;;;;;;65.47;32.30;;;;;;;;;;6272831;22;20008;-95
2023/12/31 06:00:20;;;;;;;66.45;32.97;;;;;;;;;;6271965;22;20004;-94
2023/12/31 06:02:46;;;;;;;74.38;35.58;;;;;;;;;;6273220;22;20107;-95
2023/12/31 06:05:13;;;;;;;58.97;30.63;;;;;;;;;;6272286;22;20031;-94
2023/12/31 06:07:39;;;;;;;49.72;28.38;;;;;;;;;;6272361;22;20011;-94
2023/12/31 06:10:07;;;;;;;53.88;30.35;;;;;;;;;;6272551;22;20023;-95
2023/12/31 06:12:45;;;;;;;65.72;32.53;;;;;;;;;;6271205;22;20015;-94
2023/12/31 06:15:12;;;;;;;48.42;26.95;;;;;;;;;;6272354;22;20027;-95
2023/12/31 06:17:51;;;;;;;;;;;;;;;;;;;;;
2023/12/31 06:20:24;;;;;;;40.20;22.30;;;;;;;;;;6248306;23;20080;-96
2023/12/31 06:22:55;;;;;;;64.40;31.00;;;;;;;;;;6272879;22;20012;-96
2023/12/31 06:25:28;;;;;;;49.35;27.98;;;;;;;;;;6272805;22;20023;-95
2023/12/31 06:27:57;;;;;;;38.33;23.70;;;;;;;;;;6273226;22;20032;-96
2023/12/31 06:30:29;;;;;;;60.63;30.92;;;;;;;;;;6273376;22;20000;-95
2023/12/31 06:32:58;;;;;;;65.30;32.00;;;;;;;;;;6278488;22;19992;-92
2023/12/31 06:35:33;;;;;;;41.53;24.73;;;;;;;;;;6298874;22;20012;-93
2023/12/31 06:38:02;;;;;;;48.47;25.75;;;;;;;;;;6288189;22;20020;-95
2023/12/31 06:40:55;;;;;;;40.33;23.02;;;;;;;;;;6270829;22;20019;-95
2023/12/31 06:43:24;;;;;;;34.58;20.20;;;;;;;;;;6126220;23;20018;-95
2023/12/31 06:45:53;;;;;;;39.83;23.95;;;;;;;;;;6234850;23;20031;-94
2023/12/31 06:48:19;;;;;;;35.92;21.88;;;;;;;;;;6272320;22;20008;-95
2023/12/31 06:50:55;;;;;;;48.65;26.63;;;;;;;;;;6272782;22;20436;-95
2023/12/31 06:53:24;;;;;;;47.90;24.85;;;;;;;;;;6271854;22;20474;-95
2023/12/31 06:56:12;;;;;;;38.88;23.20;;;;;;;;;;6271887;22;20334;-93
2023/12/31 06:58:44;;;;;;;40.95;22.10;;;;;;;;;;6272022;22;20008;-95
2023/12/31 07:01:16;;;;;;;34.45;19.65;;;;;;;;;;6272063;22;20083;-95
2023/12/31 07:03:45;;;;;;;43.97;23.33;;;;;;;;;;6272599;22;20008;-94
2023/12/31 07:09:15;;;;;;;36.17;19.17;;;;;;;;;;6248270;23;20011;-96
2023/12/31 07:11:41;;;;;;;30.40;18.45;;;;;;;;;;6271869;22;20004;-95
2023/12/31 07:14:08;;;;;;;35.80;20.30;;;;;;;;;;6271422;22;20008;-95
2023/12/31 07:16:37;;;;;;;35.03;20.80;;;;;;;;;;6272134;22;20008;-95
2023/12/31 07:19:03;;;;;;;34.40;21.10;;;;;;;;;;6271892;22;20066;-95
2023/12/31 07:21:35;;;;;;;38.17;21.60;;;;;;;;;;6271798;22;20012;-95
2023/12/31 07:24:01;;;;;;;38.75;22.23;;;;;;;;;;6271932;22;20008;-95
2023/12/31 07:26:31;;;;;;;39.63;22.23;;;;;;;;;;6271833;22;20086;-94
2023/12/31 07:28:57;;;;;;;46.20;25.60;;;;;;;;;;6271098;22;20000;-94
2023/12/31 07:31:29;;;;;;;41.47;23.42;;;;;;;;;;6272492;22;20005;-96
2023/12/31 07:33:55;;;;;;;38.63;21.92;;;;;;;;;;6272253;22;20014;-93
2023/12/31 07:36:25;;;;;;;34.13;19.92;;;;;;;;;;6272253;22;20501;-94
2023/12/31 07:38:58;;;;;;;41.80;24.10;;;;;;;;;;6270689;22;20024;-96
2023/12/31 07:41:30;;;;;;;41.00;22.52;;;;;;;;;;6271641;22;20036;-96
2023/12/31 07:43:56;;;;;;;35.97;20.90;;;;;;;;;;6271867;22;20054;-94
2023/12/31 07:46:23;;;;;;;35.15;20.15;;;;;;;;;;6275103;22;20468;-95
2023/12/31 07:48:51;;;;;;;35.55;21.38;;;;;;;;;;6247867;23;20078;-96
2023/12/31 07:51:20;;;;;;;34.63;21.48;;;;;;;;;;6271991;22;20039;-94
2023/12/31 07:53:46;;;;;;;37.08;20.88;;;;;;;;;;6271966;22;20024;-96
2023/12/31 07:56:12;;;;;;;35.20;20.58;;;;;;;;;;6271652;22;20008;-95
2023/12/31 07:58:41;;;;;;;34.13;20.67;;;;;;;;;;6271579;22;20338;-95
2023/12/31 08:01:11;;;;;;;36.28;20.63;;;;;;;;;;6271113;22;20016;-96
2023/12/31 08:03:40;;;;;;;36.22;19.95;;;;;;;;;;6245407;23;20008;-94
2023/12/31 08:06:06;;;;;;;35.78;20.17;;;;;;;;;;6273544;22;20426;-94
2023/12/31 08:08:32;;;;;;;33.05;19.70;;;;;;;;;;6272134;22;20015;-96
2023/12/31 08:11:03;;;;;;;33.90;20.25;;;;;;;;;;6273292;22;20005;-95
2023/12/31 08:13:29;;;;;;;39.42;23.55;;;;;;;;;;6293794;22;20014;-96
2023/12/31 08:15:56;;;;;;;31.33;19.85;;;;;;;;;;6293636;22;20012;-94
2023/12/31 08:18:22;;;;;;;33.03;19.42;;;;;;;;;;6271527;22;20008;-95
2023/12/31 08:20:51;;;;;;;30.50;18.85;;;;;;;;;;6271387;22;20004;-94
2023/12/31 08:23:19;;;;;;;34.00;20.40;;;;;;;;;;6271373;22;20537;-94
2023/12/31 08:25:45;;;;;;;38.47;22.33;;;;;;;;;;6273520;22;20005;-95
2023/12/31 08:28:14;;;;;;;41.33;21.98;;;;;;;;;;6272439;22;20004;-94
2023/12/31 08:30:40;;;;;;;38.92;25.08;;;;;;;;;;6271767;22;20031;-94
2023/12/31 08:33:13;;;;;;;34.92;20.92;;;;;;;;;;6272262;22;20008;-95
2023/12/31 08:35:45;;;;;;;35.72;21.25;;;;;;;;;;6270881;22;20004;-94
2023/12/31 08:38:11;;;;;;;40.25;21.35;;;;;;;;;;6271542;22;20473;-94
2023/12/31 08:48:51;;;;;;;32.85;20.00;;;;;;;;;;6279824;22;20011;-94
2023/12/31 08:51:17;;;;;;;33.10;19.00;;;;;;;;;;6250976;22;20006;-93
2023/12/31 08:53:44;;;;;;;37.97;21.77;;;;;;;;;;6252458;22;20337;-94
2023/12/31 08:56:34;;;;;;;32.38;19.42;;;;;;;;;;6251865;22;20026;-94
2023/12/31 08:59:00;;;;;;;32.72;19.83;;;;;;;;;;6253474;22;20457;-94
2023/12/31 09:01:27;;;;;;;43.58;24.58;;;;;;;;;;6252722;22;20083;-95
2023/12/31 09:03:55;;;;;;;42.40;26.00;;;;;;;;;;6253200;22;20014;-93
2023/12/31 09:06:24;;;;;;;38.20;22.73;;;;;;;;;;6252774;22;20031;-94
2023/12/31 09:08:51;;;;;;;36.22;21.40;;;;;;;;;;6252699;22;20058;-94
2023/12/31 09:11:21;;;;;;;38.58;22.20;;;;;;;;;;6253052;22;20011;-93
2023/12/31 09:13:47;;;;;;;34.60;20.13;;;;;;;;;;6253266;22;20003;-93
2023/12/31 09:16:19;;;;;;;38.72;22.63;;;;;;;;;;6253472;22;20004;-95
2023/12/31 09:18:45;;;;;;;35.88;21.52;;;;;;;;;;6252576;22;20004;-94
2023/12/31 09:21:15;;;;;;;35.40;20.17;;;;;;;;;;6252706;22;20011;-93
2023/12/31 09:23:44;;;;;;;33.63;19.95;;;;;;;;;;6252863;22;19999;-94
2023/12/31 09:26:10;;;;;;;39.08;23.63;;;;;;;;;;6252632;22;20008;-94
2023/12/31 09:28:36;;;;;;;41.42;23.17;;;;;;;;;;6252663;22;20050;-93
2023/12/31 09:31:02;;;;;;;39.13;22.10;;;;;;;;;;6252792;22;20008;-94
2023/12/31 09:33:29;;;;;;;37.60;22.27;;;;;;;;;;6252358;22;20452;-94
2023/12/31 09:35:58;;;;;;;35.10;21.50;;;;;;;;;;6252721;22;19999;-93
2023/12/31 09:41:27;;;;;;;40.65;23.33;;;;;;;;;;6279741;22;20039;-93
2023/12/31 09:43:57;;;;;;;35.47;21.20;;;;;;;;;;6253016;22;20008;-94
2023/12/31 09:46:24;;;;;;;33.75;19.67;;;;;;;;;;6253026;22;20039;-95
2023/12/31 09:48:54;;;;;;;30.25;18.83;;;;;;;;;;6252852;22;20008;-93
2023/12/31 09:51:23;;;;;;;25.65;16.83;;;;;;;;;;6254420;22;20087;-94
2023/12/31 09:53:55;;;;;;;29.20;18.08;;;;;;;;;;6306293;22;20003;-94
2023/12/31 09:56:22;;;;;;;33.67;19.05;;;;;;;;;;6276526;22;20018;-95
2023/12/31 09:58:51;;;;;;;31.60;19.80;;;;;;;;;;6252966;22;20008;-96
2023/12/31 10:01:18;;;;;;;34.85;20.65;;;;;;;;;;6251970;22;20042;-94
2023/12/31 10:03:45;;;;;;;30.65;18.60;;;;;;;;;;6250311;22;20455;-95
2023/12/31 10:06:12;;;;;;;42.90;24.00;;;;;;;;;;6252024;22;20004;-96
2023/12/31 10:08:38;;;;;;;38.08;22.08;;;;;;;;;;6251991;22;20008;-95
2023/12/31 10:11:06;;;;;;;33.22;20.83;;;;;;;;;;6278447;22;20011;-94
2023/12/31 10:13:32;;;;;;;30.40;17.88;;;;;;;;;;6252400;22;20007;-93
2023/12/31 10:15:58;;;;;;;30.67;19.13;;;;;;;;;;6252882;22;20010;-92
2023/12/31 10:18:27;;;;;;;38.05;21.60;;;;;;;;;;6252704;22;20018;-94
2023/12/31 10:20:54;;;;;;;41.13;26.52;;;;;;;;;;6252029;22;20010;-91
2023/12/31 10:23:21;;;;;;;36.45;20.38;;;;;;;;;;6251987;22;20445;-94
2023/12/31 10:25:47;;;;;;;32.40;19.10;;;;;;;;;;6255466;22;20004;-95
2023/12/31 10:28:13;;;;;;;39.88;23.60;;;;;;;;;;6253639;22;20007;-94
2023/12/31 10:30:40;;;;;;;36.22;19.88;;;;;;;;;;6251842;22;19999;-94
2023/12/31 10:33:12;;;;;;;33.88;20.50;;;;;;;;;;6252310;22;20003;-94
2023/12/31 10:35:38;;;;;;;31.70;20.15;;;;;;;;;;6255266;22;20015;-93
2023/12/31 10:38:05;;;;;;;27.73;17.70;;;;;;;;;;6252838;22;20397;-94
2023/12/31 10:40:35;;;;;;;36.85;23.77;;;;;;;;;;6252052;22;20011;-95
2023/12/31 10:43:08;;;;;;;27.70;17.73;;;;;;;;;;6251911;22;20047;-95
2023/12/31 10:45:35;;;;;;;31.27;18.33;;;;;;;;;;6251997;22;20155;-93
2023/12/31 10:48:01;;;;;;;28.95;18.23;;;;;;;;;;6251426;22;20019;-94
2023/12/31 10:50:28;;;;;;;32.55;20.67;;;;;;;;;;6251631;22;20023;-94
2023/12/31 10:52:56;;;;;;;31.85;18.45;;;;;;;;;;6251402;22;20003;-95
2023/12/31 10:55:33;;;;;;;30.35;19.10;;;;;;;;;;6250916;22;20023;-94
2023/12/31 10:58:01;;;;;;;27.38;18.05;;;;;;;;;;6251694;22;20008;-94
2023/12/31 11:00:27;;;;;;;33.28;19.63;;;;;;;;;;6251838;22;20495;-93
2023/12/31 11:02:56;;;;;;;26.30;16.27;;;;;;;;;;6251770;22;20114;-94
2023/12/31 11:05:23;;;;;;;25.17;16.13;;;;;;;;;;6251445;22;20006;-94
2023/12/31 11:07:50;;;;;;;22.48;15.50;;;;;;;;;;6251425;22;20008;-94
2023/12/31 11:10:17;;;;;;;28.40;18.50;;;;;;;;;;6251739;22;20030;-93
2023/12/31 11:12:48;;;;;;;27.15;17.52;;;;;;;;;;6249935;22;20057;-92
2023/12/31 11:15:16;;;;;;;21.60;14.38;;;;;;;;;;6252236;22;20003;-94
2023/12/31 11:17:51;;;;;;;24.08;15.02;;;;;;;;;;6251287;22;20007;-92
2023/12/31 11:20:36;;;;;;;29.13;19.13;;;;;;;;;;6252503;22;20023;-94
2023/12/31 11:23:11;;;;;;;30.65;18.85;;;;;;;;;;6251313;22;20062;-95
2023/12/31 11:25:44;;;;;;;24.00;16.95;;;;;;;;;;6252200;22;20027;-93
2023/12/31 11:28:10;;;;;;;117.50;64.10;;;;;;;;;;6252419;22;20010;-95
2023/12/31 11:30:55;;;;;;;28.83;17.60;;;;;;;;;;6252460;22;20010;-95
2023/12/31 11:33:45;;;;;;;32.28;20.80;;;;;;;;;;6260359;22;19987;-94
2023/12/31 11:36:16;;;;;;;27.55;17.85;;;;;;;;;;6261336;22;19996;-90
2023/12/31 11:38:56;;;;;;;30.38;19.35;;;;;;;;;;6264631;22;20039;-93
2023/12/31 11:41:23;;;;;;;28.27;18.25;;;;;;;;;;6257216;22;20030;-93
2023/12/31 11:43:53;;;;;;;22.85;14.18;;;;;;;;;;6252696;22;20011;-95
2023/12/31 11:46:33;;;;;;;26.85;17.92;;;;;;;;;;6251337;22;20026;-95
2023/12/31 11:48:59;;;;;;;29.65;18.95;;;;;;;;;;6252081;22;20007;-93
2023/12/31 11:51:29;;;;;;;27.75;18.17;;;;;;;;;;6251589;22;20010;-94
2023/12/31 11:53:58;;;;;;;28.30;18.60;;;;;;;;;;6253591;22;20082;-93
2023/12/31 11:56:29;;;;;;;31.52;19.75;;;;;;;;;;6252110;22;20014;-96
2023/12/31 11:58:58;;;;;;;31.05;19.80;;;;;;;;;;6252573;22;20035;-94
2023/12/31 12:01:25;;;;;;;30.92;19.25;;;;;;;;;;6252358;22;20007;-92
2023/12/31 12:03:51;;;;;;;30.08;19.45;;;;;;;;;;6252339;22;20467;-94
2023/12/31 12:06:18;;;;;;;31.13;20.58;;;;;;;;;;6257055;22;20004;-96
2023/12/31 12:09:00;;;;;;;33.08;20.83;;;;;;;;;;6255582;22;20016;-94
2023/12/31 12:11:27;;;;;;;27.35;18.40;;;;;;;;;;6252063;22;20484;-95
2023/12/31 12:13:53;;;;;;;30.83;20.45;;;;;;;;;;6253031;22;20015;-95
2023/12/31 12:16:22;;;;;;;30.42;18.90;;;;;;;;;;6252493;22;20006;-93
2023/12/31 12:18:57;;;;;;;34.22;20.42;;;;;;;;;;6252709;22;20015;-94
2023/12/31 12:21:24;;;;;;;31.73;18.75;;;;;;;;;;6252265;22;20058;-94
2023/12/31 12:23:50;;;;;;;33.40;19.65;;;;;;;;;;6252182;22;20010;-94
2023/12/31 12:26:16;;;;;;;29.92;19.33;;;;;;;;;;6252590;22;20463;-94
2023/12/31 12:28:44;;;;;;;34.83;18.90;;;;;;;;;;6252756;22;20003;-95
2023/12/31 12:31:10;;;;;;;33.80;22.35;;;;;;;;;;6252082;22;20094;-93
2023/12/31 12:33:37;;;;;;;30.63;20.65;;;;;;;;;;6253281;22;20007;-93
2023/12/31 12:36:03;;;;;;;31.17;19.88;;;;;;;;;;6255114;22;20004;-93
2023/12/31 12:38:30;;;;;;;28.42;18.88;;;;;;;;;;6255534;22;20007;-94
2023/12/31 12:41:01;;;;;;;29.70;19.05;;;;;;;;;;6254868;22;20011;-93
2023/12/31 12:43:34;;;;;;;31.42;21.80;;;;;;;;;;6256437;22;20016;-93
2023/12/31 12:46:06;;;;;;;29.77;19.88;;;;;;;;;;6259132;22;20019;-95
2023/12/31 12:48:36;;;;;;;31.90;21.02;;;;;;;;;;6254148;22;20007;-92
2023/12/31 12:51:02;;;;;;;24.45;17.60;;;;;;;;;;6253179;22;20069;-95
2023/12/31 12:53:29;;;;;;;29.13;18.42;;;;;;;;;;6255723;22;20439;-96
2023/12/31 12:55:55;;;;;;;30.15;20.52;;;;;;;;;;6254034;22;20011;-95
2023/12/31 12:58:22;;;;;;;27.33;18.63;;;;;;;;;;6253190;22;20004;-95
2023/12/31 13:00:49;;;;;;;24.42;17.05;;;;;;;;;;6280004;22;20413;-96
2023/12/31 13:03:15;;;;;;;21.70;15.23;;;;;;;;;;6252848;22;20011;-94
2023/12/31 13:05:42;;;;;;;22.05;14.18;;;;;;;;;;6253250;22;20004;-95
2023/12/31 13:08:08;;;;;;;19.60;13.77;;;;;;;;;;6253393;22;20010;-94
2023/12/31 13:10:34;;;;;;;20.00;14.27;;;;;;;;;;6256683;22;20038;-95
2023/12/31 13:13:00;;;;;;;19.92;14.10;;;;;;;;;;6254757;22;20003;-94
2023/12/31 13:15:26;;;;;;;21.58;14.18;;;;;;;;;;6255939;22;20034;-95
2023/12/31 13:17:53;;;;;;;22.02;14.65;;;;;;;;;;6270410;22;19992;-93
2023/12/31 13:20:20;;;;;;;20.45;14.45;;;;;;;;;;6279674;22;20018;-94
2023/12/31 13:22:46;;;;;;;20.95;14.43;;;;;;;;;;6256082;22;20007;-95
2023/12/31 13:25:13;;;;;;;22.77;16.05;;;;;;;;;;6259518;22;20001;-94
2023/12/31 13:27:39;;;;;;;23.23;15.05;;;;;;;;;;6252778;22;20129;-93
2023/12/31 13:30:06;;;;;;;22.83;15.13;;;;;;;;;;6252767;22;20000;-94
2023/12/31 13:32:35;;;;;;;24.33;16.00;;;;;;;;;;6253482;22;20003;-94
2023/12/31 13:35:01;;;;;;;24.38;16.48;;;;;;;;;;6252145;22;20020;-94
2023/12/31 13:37:28;;;;;;;24.92;16.50;;;;;;;;;;6253185;22;20082;-95
2023/12/31 13:39:54;;;;;;;26.15;16.58;;;;;;;;;;6252743;22;20441;-94
2023/12/31 13:42:20;;;;;;;26.35;16.70;;;;;;;;;;6253369;22;20015;-95
2023/12/31 13:44:56;;;;;;;26.42;18.15;;;;;;;;;;6249182;22;20091;-92
2023/12/31 13:47:22;;;;;;;36.17;21.65;;;;;;;;;;6222468;23;20074;-93
2023/12/31 13:49:48;;;;;;;30.77;20.25;;;;;;;;;;6222194;23;20004;-93
2023/12/31 13:52:15;;;;;;;39.63;22.67;;;;;;;;;;6221920;23;20038;-93
2023/12/31 13:54:47;;;;;;;36.03;21.42;;;;;;;;;;6222052;23;20015;-93
2023/12/31 13:57:13;;;;;;;34.13;21.40;;;;;;;;;;6221900;23;20032;-93
2023/12/31 13:59:39;;;;;;;46.65;29.38;;;;;;;;;;6222292;23;20008;-94
2023/12/31 14:02:08;;;;;;;33.42;20.95;;;;;;;;;;6221453;23;20024;-92
2023/12/31 14:04:34;;;;;;;31.52;19.60;;;;;;;;;;6222315;23;20392;-93
2023/12/31 14:07:00;;;;;;;28.05;18.17;;;;;;;;;;6221078;23;20000;-92
2023/12/31 14:09:26;;;;;;;26.42;15.40;;;;;;;;;;6222124;23;20011;-92
2023/12/31 14:11:53;;;;;;;30.13;18.90;;;;;;;;;;6221936;23;20311;-90
2023/12/31 14:14:20;;;;;;;25.17;16.52;;;;;;;;;;6221872;23;20032;-93
2023/12/31 14:16:46;;;;;;;26.52;17.73;;;;;;;;;;6221998;23;20023;-95
2023/12/31 14:19:37;;;;;;;28.75;17.23;;;;;;;;;;6223532;23;20020;-96
2023/12/31 14:24:58;;;;;;;30.08;17.17;;;;;;;;;;6097172;23;20006;-93
2023/12/31 14:27:25;;;;;;;34.88;18.60;;;;;;;;;;6206051;23;20009;-95
2023/12/31 14:30:01;;;;;;;33.92;19.45;;;;;;;;;;6216603;23;20419;-96
2023/12/31 14:33:10;;;;;;;31.27;19.73;;;;;;;;;;6222222;23;20008;-96
2023/12/31 14:38:29;;;;;;;26.70;16.80;;;;;;;;;;6181190;23;20012;-93
2023/12/31 14:40:55;;;;;;;34.25;22.20;;;;;;;;;;6222241;22;20016;-94
2023/12/31 14:43:22;;;;;;;68.78;41.00;;;;;;;;;;6216575;23;20016;-93
2023/12/31 14:45:54;;;;;;;67.32;41.50;;;;;;;;;;6218609;23;20004;-96
2023/12/31 14:48:47;;;;;;;48.13;26.98;;;;;;;;;;6221054;23;20052;-96
2023/12/31 14:51:20;;;;;;;37.38;22.63;;;;;;;;;;6242509;22;20024;-96
2023/12/31 14:54:04;;;;;;;43.65;24.83;;;;;;;;;;6250048;23;20341;-95